Waterfall, Pennsylvania
Current Conditions -  °F | °C
As of 9:53 PM on Friday 21 Nov 2014 (Local Time) from KAOO Reporting Station
Clear Clear  
Wind Chill: 10°   Ceiling: Unl
Heat Index: 18°   Visibility: 10mi
Dew Point: 10°   Wind: 6mph
Humidity: 71%   Direction: 220°SW
Pressure: 30.44"   Gusts: NA
Location:  40.13°N, 78.06°W
Report Text: KAOO 220253Z AUTO 22005KT 10SM CLR M08/M12 A3044 RMK AO2 SLP333 T10781122 58002
Loading
Personal Weather Stations






























Interactive Weather Map New forecast layout! Learn more

10-Day Weather Forecast

Advertisements
Track Severe Weather on mobile